Woodsprings, Arizona
Current Conditions -  °F | °C
As of 11:53 PM on Saturday 25 Oct 2014 (Local Time) from KRQE Reporting Station
Few Clouds Few Clouds  
Wind Chill: 11°   Ceiling: Unl
Heat Index: 11°   Visibility: 10mi
Dew Point:   Wind: 0mph
Humidity: 59%   Direction: NA
Pressure: 30.26"   Gusts: NA
Location:  35.6053°N, 109.458°W
Report Text: KRQE 260553Z AUTO 00000KT 10SM FEW055 11/03 A3026 RMK AO2 SLP147 T01060028 10211 20106 58003 TSNO
Loading
Personal Weather Stations






























Interactive Weather Map
Tropical Storm Tracking
New forecast layout! Learn more

10-Day Weather Forecast

Advertisements
Track Severe Weather on mobile